sensor_id;sensor_type;location;lat;lon;timestamp;pressure;altitude;pressure_sealevel;temperature
41593;BMP180;28026;48.562;14.440;2023-04-03T00:00:34;94079.00;;;9.60
41593;BMP180;28026;48.562;14.440;2023-04-03T00:03:05;94083.00;;;9.60
41593;BMP180;28026;48.562;14.440;2023-04-03T00:05:36;94083.00;;;9.60
41593;BMP180;28026;48.562;14.440;2023-04-03T00:08:07;94077.00;;;9.50
41593;BMP180;28026;48.562;14.440;2023-04-03T00:10:40;94082.00;;;9.40
41593;BMP180;28026;48.562;14.440;2023-04-03T00:13:12;94076.00;;;9.40
41593;BMP180;28026;48.562;14.440;2023-04-03T00:15:43;94082.00;;;9.40
41593;BMP180;28026;48.562;14.440;2023-04-03T00:18:14;94084.00;;;9.40
41593;BMP180;28026;48.562;14.440;2023-04-03T00:20:46;94079.00;;;9.40
41593;BMP180;28026;48.562;14.440;2023-04-03T00:23:18;94083.00;;;9.40
41593;BMP180;28026;48.562;14.440;2023-04-03T00:25:50;94077.00;;;9.40
41593;BMP180;28026;48.562;14.440;2023-04-03T00:28:22;94078.00;;;9.40
41593;BMP180;28026;48.562;14.440;2023-04-03T00:30:53;94073.00;;;9.40
41593;BMP180;28026;48.562;14.440;2023-04-03T00:33:24;94073.00;;;9.40
41593;BMP180;28026;48.562;14.440;2023-04-03T00:35:55;94082.00;;;9.30
41593;BMP180;28026;48.562;14.440;2023-04-03T00:38:26;94075.00;;;9.30
41593;BMP180;28026;48.562;14.440;2023-04-03T00:40:57;94073.00;;;9.30
41593;BMP180;28026;48.562;14.440;2023-04-03T00:43:28;94081.00;;;9.30
41593;BMP180;28026;48.562;14.440;2023-04-03T00:45:59;94076.00;;;9.30
41593;BMP180;28026;48.562;14.440;2023-04-03T00:48:34;94081.00;;;9.30
41593;BMP180;28026;48.562;14.440;2023-04-03T00:51:24;94081.00;;;9.30
41593;BMP180;28026;48.562;14.440;2023-04-03T00:54:01;94078.00;;;9.30
41593;BMP180;28026;48.562;14.440;2023-04-03T00:56:37;94080.00;;;9.20
41593;BMP180;28026;48.562;14.440;2023-04-03T00:59:15;94078.00;;;9.20
41593;BMP180;28026;48.562;14.440;2023-04-03T01:01:56;94078.00;;;9.20
41593;BMP180;28026;48.562;14.440;2023-04-03T01:04:36;94075.00;;;9.20
41593;BMP180;28026;48.562;14.440;2023-04-03T01:07:23;94071.00;;;9.20
41593;BMP180;28026;48.562;14.440;2023-04-03T01:10:06;94075.00;;;9.20
41593;BMP180;28026;48.562;14.440;2023-04-03T01:12:44;94072.00;;;9.20
41593;BMP180;28026;48.562;14.440;2023-04-03T01:15:22;94076.00;;;9.20
41593;BMP180;28026;48.562;14.440;2023-04-03T01:17:58;94074.00;;;9.20
41593;BMP180;28026;48.562;14.440;2023-04-03T01:25:55;94072.00;;;9.20
41593;BMP180;28026;48.562;14.440;2023-04-03T01:28:34;94078.00;;;9.20
41593;BMP180;28026;48.562;14.440;2023-04-03T01:34:13;94082.00;;;9.20
41593;BMP180;28026;48.562;14.440;2023-04-03T01:36:44;94081.00;;;9.20
41593;BMP180;28026;48.562;14.440;2023-04-03T01:39:15;94072.00;;;9.20
41593;BMP180;28026;48.562;14.440;2023-04-03T01:41:47;94076.00;;;9.20
41593;BMP180;28026;48.562;14.440;2023-04-03T01:44:18;94078.00;;;9.20
41593;BMP180;28026;48.562;14.440;2023-04-03T01:46:49;94068.00;;;9.20
41593;BMP180;28026;48.562;14.440;2023-04-03T01:49:20;94091.00;;;9.20
41593;BMP180;28026;48.562;14.440;2023-04-03T01:51:50;94085.00;;;9.20
41593;BMP180;28026;48.562;14.440;2023-04-03T01:54:21;94087.00;;;9.20
41593;BMP180;28026;48.562;14.440;2023-04-03T01:56:52;94086.00;;;9.20
41593;BMP180;28026;48.562;14.440;2023-04-03T01:59:23;94090.00;;;9.20
41593;BMP180;28026;48.562;14.440;2023-04-03T02:01:54;94084.00;;;9.20
41593;BMP180;28026;48.562;14.440;2023-04-03T02:04:25;94086.00;;;9.20
41593;BMP180;28026;48.562;14.440;2023-04-03T02:06:56;94080.00;;;9.20
41593;BMP180;28026;48.562;14.440;2023-04-03T02:09:27;94088.00;;;9.10
41593;BMP180;28026;48.562;14.440;2023-04-03T02:11:58;94095.00;;;9.20
41593;BMP180;28026;48.562;14.440;2023-04-03T02:14:29;94084.00;;;9.20
41593;BMP180;28026;48.562;14.440;2023-04-03T02:17:01;94095.00;;;9.20
41593;BMP180;28026;48.562;14.440;2023-04-03T02:19:39;94093.00;;;9.20
41593;BMP180;28026;48.562;14.440;2023-04-03T02:22:10;94093.00;;;9.20
41593;BMP180;28026;48.562;14.440;2023-04-03T02:24:41;94086.00;;;9.20
41593;BMP180;28026;48.562;14.440;2023-04-03T02:27:12;94086.00;;;9.10
41593;BMP180;28026;48.562;14.440;2023-04-03T02:29:43;94083.00;;;9.10
41593;BMP180;28026;48.562;14.440;2023-04-03T02:32:13;94084.00;;;9.10
41593;BMP180;28026;48.562;14.440;2023-04-03T02:34:44;94086.00;;;9.10
41593;BMP180;28026;48.562;14.440;2023-04-03T02:37:15;94090.00;;;9.10
41593;BMP180;28026;48.562;14.440;2023-04-03T02:39:46;94078.00;;;9.00
41593;BMP180;28026;48.562;14.440;2023-04-03T02:42:17;94075.00;;;9.00
41593;BMP180;28026;48.562;14.440;2023-04-03T02:44:48;94080.00;;;9.00
41593;BMP180;28026;48.562;14.440;2023-04-03T02:47:19;94085.00;;;8.90
41593;BMP180;28026;48.562;14.440;2023-04-03T02:49:50;94082.00;;;8.90
41593;BMP180;28026;48.562;14.440;2023-04-03T02:52:23;94078.00;;;9.00
41593;BMP180;28026;48.562;14.440;2023-04-03T02:54:54;94084.00;;;9.00
41593;BMP180;28026;48.562;14.440;2023-04-03T02:57:24;94088.00;;;9.10
41593;BMP180;28026;48.562;14.440;2023-04-03T02:59:55;94080.00;;;9.00
41593;BMP180;28026;48.562;14.440;2023-04-03T03:02:26;94079.00;;;9.00
41593;BMP180;28026;48.562;14.440;2023-04-03T03:04:57;94083.00;;;9.00
41593;BMP180;28026;48.562;14.440;2023-04-03T03:07:28;94083.00;;;9.00
41593;BMP180;28026;48.562;14.440;2023-04-03T03:09:59;94085.00;;;9.00
41593;BMP180;28026;48.562;14.440;2023-04-03T03:12:30;94080.00;;;9.10
41593;BMP180;28026;48.562;14.440;2023-04-03T03:15:01;94079.00;;;9.10
41593;BMP180;28026;48.562;14.440;2023-04-03T03:17:32;94077.00;;;9.00
41593;BMP180;28026;48.562;14.440;2023-04-03T03:20:05;94084.00;;;9.00
41593;BMP180;28026;48.562;14.440;2023-04-03T03:22:36;94082.00;;;8.90
41593;BMP180;28026;48.562;14.440;2023-04-03T03:25:08;94087.00;;;8.90
41593;BMP180;28026;48.562;14.440;2023-04-03T03:27:40;94086.00;;;8.90
41593;BMP180;28026;48.562;14.440;2023-04-03T03:30:11;94078.00;;;8.90
41593;BMP180;28026;48.562;14.440;2023-04-03T03:32:42;94075.00;;;8.90
41593;BMP180;28026;48.562;14.440;2023-04-03T03:35:13;94080.00;;;8.90
41593;BMP180;28026;48.562;14.440;2023-04-03T03:37:44;94083.00;;;9.00
41593;BMP180;28026;48.562;14.440;2023-04-03T03:40:15;94084.00;;;9.00
41593;BMP180;28026;48.562;14.440;2023-04-03T03:42:46;94080.00;;;9.00
41593;BMP180;28026;48.562;14.440;2023-04-03T03:45:17;94081.00;;;9.10
41593;BMP180;28026;48.562;14.440;2023-04-03T03:47:48;94086.00;;;9.00
41593;BMP180;28026;48.562;14.440;2023-04-03T03:50:18;94089.00;;;9.10
41593;BMP180;28026;48.562;14.440;2023-04-03T03:52:49;94087.00;;;9.10
41593;BMP180;28026;48.562;14.440;2023-04-03T03:55:21;94083.00;;;9.10
41593;BMP180;28026;48.562;14.440;2023-04-03T03:57:52;94086.00;;;9.00
41593;BMP180;28026;48.562;14.440;2023-04-03T04:00:23;94084.00;;;9.00
41593;BMP180;28026;48.562;14.440;2023-04-03T04:02:54;94078.00;;;9.00
41593;BMP180;28026;48.562;14.440;2023-04-03T04:05:26;94090.00;;;9.00
41593;BMP180;28026;48.562;14.440;2023-04-03T04:07:57;94085.00;;;9.00
41593;BMP180;28026;48.562;14.440;2023-04-03T04:10:28;94082.00;;;9.10
41593;BMP180;28026;48.562;14.440;2023-04-03T04:12:59;94086.00;;;9.00
41593;BMP180;28026;48.562;14.440;2023-04-03T04:15:30;94084.00;;;9.10
41593;BMP180;28026;48.562;14.440;2023-04-03T04:18:01;94081.00;;;9.10
41593;BMP180;28026;48.562;14.440;2023-04-03T04:20:32;94090.00;;;9.10
41593;BMP180;28026;48.562;14.440;2023-04-03T04:23:03;94085.00;;;9.10
41593;BMP180;28026;48.562;14.440;2023-04-03T04:25:34;94088.00;;;9.10
41593;BMP180;28026;48.562;14.440;2023-04-03T04:28:06;94085.00;;;9.10
41593;BMP180;28026;48.562;14.440;2023-04-03T04:30:37;94092.00;;;9.10
41593;BMP180;28026;48.562;14.440;2023-04-03T04:33:08;94088.00;;;9.10
41593;BMP180;28026;48.562;14.440;2023-04-03T04:35:42;94080.00;;;9.00
41593;BMP180;28026;48.562;14.440;2023-04-03T04:38:14;94080.00;;;9.00
41593;BMP180;28026;48.562;14.440;2023-04-03T04:40:44;94086.00;;;9.00
41593;BMP180;28026;48.562;14.440;2023-04-03T04:43:16;94086.00;;;9.00
41593;BMP180;28026;48.562;14.440;2023-04-03T04:45:47;94083.00;;;9.00
41593;BMP180;28026;48.562;14.440;2023-04-03T04:48:18;94084.00;;;9.00
41593;BMP180;28026;48.562;14.440;2023-04-03T04:50:49;94093.00;;;8.90
41593;BMP180;28026;48.562;14.440;2023-04-03T04:53:19;94086.00;;;8.90
41593;BMP180;28026;48.562;14.440;2023-04-03T04:55:52;94091.00;;;8.90
41593;BMP180;28026;48.562;14.440;2023-04-03T04:58:23;94093.00;;;8.90
41593;BMP180;28026;48.562;14.440;2023-04-03T05:01:09;94089.00;;;8.90
41593;BMP180;28026;48.562;14.440;2023-04-03T05:03:41;94086.00;;;8.90
41593;BMP180;28026;48.562;14.440;2023-04-03T05:06:12;94095.00;;;8.90
41593;BMP180;28026;48.562;14.440;2023-04-03T05:08:43;94094.00;;;8.90
41593;BMP180;28026;48.562;14.440;2023-04-03T05:11:14;94094.00;;;8.90
41593;BMP180;28026;48.562;14.440;2023-04-03T05:13:44;94101.00;;;8.90
41593;BMP180;28026;48.562;14.440;2023-04-03T05:16:15;94095.00;;;8.90
41593;BMP180;28026;48.562;14.440;2023-04-03T05:18:47;94104.00;;;8.90
41593;BMP180;28026;48.562;14.440;2023-04-03T05:21:17;94097.00;;;8.90
41593;BMP180;28026;48.562;14.440;2023-04-03T05:23:49;94106.00;;;9.00
41593;BMP180;28026;48.562;14.440;2023-04-03T05:26:19;94096.00;;;9.00
41593;BMP180;28026;48.562;14.440;2023-04-03T05:28:51;94096.00;;;9.00
41593;BMP180;28026;48.562;14.440;2023-04-03T05:31:23;94105.00;;;9.10
41593;BMP180;28026;48.562;14.440;2023-04-03T05:33:54;94107.00;;;9.00
41593;BMP180;28026;48.562;14.440;2023-04-03T05:36:25;94104.00;;;9.00
41593;BMP180;28026;48.562;14.440;2023-04-03T05:38:56;94108.00;;;9.00
41593;BMP180;28026;48.562;14.440;2023-04-03T05:41:27;94110.00;;;8.90
41593;BMP180;28026;48.562;14.440;2023-04-03T05:43:58;94109.00;;;8.90
41593;BMP180;28026;48.562;14.440;2023-04-03T05:46:29;94112.00;;;8.90
41593;BMP180;28026;48.562;14.440;2023-04-03T05:49:00;94109.00;;;8.90
41593;BMP180;28026;48.562;14.440;2023-04-03T05:51:39;94114.00;;;8.90
41593;BMP180;28026;48.562;14.440;2023-04-03T05:54:21;94124.00;;;8.80
41593;BMP180;28026;48.562;14.440;2023-04-03T05:56:55;94114.00;;;8.80
41593;BMP180;28026;48.562;14.440;2023-04-03T05:59:26;94116.00;;;8.80
41593;BMP180;28026;48.562;14.440;2023-04-03T06:01:57;94117.00;;;8.80
41593;BMP180;28026;48.562;14.440;2023-04-03T06:04:28;94121.00;;;8.90
41593;BMP180;28026;48.562;14.440;2023-04-03T06:06:58;94120.00;;;8.90
41593;BMP180;28026;48.562;14.440;2023-04-03T06:09:30;94115.00;;;8.80
41593;BMP180;28026;48.562;14.440;2023-04-03T06:12:01;94110.00;;;8.80
41593;BMP180;28026;48.562;14.440;2023-04-03T06:14:32;94116.00;;;8.80
41593;BMP180;28026;48.562;14.440;2023-04-03T06:17:03;94122.00;;;8.80
41593;BMP180;28026;48.562;14.440;2023-04-03T06:19:35;94125.00;;;8.80
41593;BMP180;28026;48.562;14.440;2023-04-03T06:22:06;94136.00;;;8.80
41593;BMP180;28026;48.562;14.440;2023-04-03T06:24:37;94137.00;;;8.80
41593;BMP180;28026;48.562;14.440;2023-04-03T06:27:10;94148.00;;;8.70
41593;BMP180;28026;48.562;14.440;2023-04-03T06:29:41;94140.00;;;8.70
41593;BMP180;28026;48.562;14.440;2023-04-03T06:32:12;94134.00;;;8.60
41593;BMP180;28026;48.562;14.440;2023-04-03T06:34:43;94140.00;;;8.50
41593;BMP180;28026;48.562;14.440;2023-04-03T06:37:18;94142.00;;;8.40
41593;BMP180;28026;48.562;14.440;2023-04-03T06:39:51;94150.00;;;8.40
41593;BMP180;28026;48.562;14.440;2023-04-03T06:42:23;94146.00;;;8.30
41593;BMP180;28026;48.562;14.440;2023-04-03T06:44:54;94148.00;;;8.20
41593;BMP180;28026;48.562;14.440;2023-04-03T06:47:25;94143.00;;;8.10
41593;BMP180;28026;48.562;14.440;2023-04-03T06:49:56;94152.00;;;8.10
41593;BMP180;28026;48.562;14.440;2023-04-03T06:52:28;94153.00;;;8.10
41593;BMP180;28026;48.562;14.440;2023-04-03T06:54:59;94153.00;;;8.20
41593;BMP180;28026;48.562;14.440;2023-04-03T06:57:30;94149.00;;;8.20
41593;BMP180;28026;48.562;14.440;2023-04-03T07:00:02;94163.00;;;8.20
41593;BMP180;28026;48.562;14.440;2023-04-03T07:02:34;94166.00;;;8.20
41593;BMP180;28026;48.562;14.440;2023-04-03T07:05:06;94168.00;;;8.30
41593;BMP180;28026;48.562;14.440;2023-04-03T07:07:37;94163.00;;;8.40
41593;BMP180;28026;48.562;14.440;2023-04-03T07:10:09;94151.00;;;8.50
41593;BMP180;28026;48.562;14.440;2023-04-03T07:12:40;94178.00;;;8.50
41593;BMP180;28026;48.562;14.440;2023-04-03T07:15:11;94171.00;;;8.60
41593;BMP180;28026;48.562;14.440;2023-04-03T07:17:43;94177.00;;;8.60
41593;BMP180;28026;48.562;14.440;2023-04-03T07:20:14;94179.00;;;8.60
41593;BMP180;28026;48.562;14.440;2023-04-03T07:22:45;94182.00;;;8.60
41593;BMP180;28026;48.562;14.440;2023-04-03T07:25:16;94181.00;;;8.60
41593;BMP180;28026;48.562;14.440;2023-04-03T07:27:47;94190.00;;;8.60
41593;BMP180;28026;48.562;14.440;2023-04-03T07:30:20;94187.00;;;8.60
41593;BMP180;28026;48.562;14.440;2023-04-03T07:32:51;94189.00;;;8.70
41593;BMP180;28026;48.562;14.440;2023-04-03T07:35:22;94194.00;;;8.70
41593;BMP180;28026;48.562;14.440;2023-04-03T07:37:53;94185.00;;;8.70
41593;BMP180;28026;48.562;14.440;2023-04-03T07:40:24;94194.00;;;8.70
41593;BMP180;28026;48.562;14.440;2023-04-03T07:42:55;94189.00;;;8.70
41593;BMP180;28026;48.562;14.440;2023-04-03T07:45:27;94201.00;;;8.70
41593;BMP180;28026;48.562;14.440;2023-04-03T07:47:58;94197.00;;;8.80
41593;BMP180;28026;48.562;14.440;2023-04-03T07:50:29;94205.00;;;8.80
41593;BMP180;28026;48.562;14.440;2023-04-03T07:53:03;94204.00;;;8.90
41593;BMP180;28026;48.562;14.440;2023-04-03T07:55:34;94200.00;;;9.00
41593;BMP180;28026;48.562;14.440;2023-04-03T07:58:17;94208.00;;;9.00
41593;BMP180;28026;48.562;14.440;2023-04-03T08:00:49;94211.00;;;9.00
41593;BMP180;28026;48.562;14.440;2023-04-03T08:03:20;94209.00;;;9.00
41593;BMP180;28026;48.562;14.440;2023-04-03T08:05:51;94205.00;;;9.10
41593;BMP180;28026;48.562;14.440;2023-04-03T08:08:23;94214.00;;;9.10
41593;BMP180;28026;48.562;14.440;2023-04-03T08:10:55;94219.00;;;9.10
41593;BMP180;28026;48.562;14.440;2023-04-03T08:13:26;94215.00;;;9.10
41593;BMP180;28026;48.562;14.440;2023-04-03T08:15:57;94224.00;;;9.20
41593;BMP180;28026;48.562;14.440;2023-04-03T08:18:29;94204.00;;;9.10
41593;BMP180;28026;48.562;14.440;2023-04-03T08:21:00;94215.00;;;9.20
41593;BMP180;28026;48.562;14.440;2023-04-03T08:23:31;94212.00;;;9.30
41593;BMP180;28026;48.562;14.440;2023-04-03T08:26:12;94217.00;;;9.40
41593;BMP180;28026;48.562;14.440;2023-04-03T08:28:45;94214.00;;;9.40
41593;BMP180;28026;48.562;14.440;2023-04-03T08:31:18;94223.00;;;9.50
41593;BMP180;28026;48.562;14.440;2023-04-03T08:33:50;94226.00;;;9.60
41593;BMP180;28026;48.562;14.440;2023-04-03T08:36:28;94229.00;;;9.70
41593;BMP180;28026;48.562;14.440;2023-04-03T08:39:00;94226.00;;;9.80
41593;BMP180;28026;48.562;14.440;2023-04-03T08:41:43;94243.00;;;10.10
41593;BMP180;28026;48.562;14.440;2023-04-03T08:48:00;94241.00;;;11.00
41593;BMP180;28026;48.562;14.440;2023-04-03T08:50:49;94241.00;;;11.30
41593;BMP180;28026;48.562;14.440;2023-04-03T08:53:34;94239.00;;;11.70
41593;BMP180;28026;48.562;14.440;2023-04-03T08:56:11;94231.00;;;11.90
41593;BMP180;28026;48.562;14.440;2023-04-03T08:58:50;94219.00;;;11.80
41593;BMP180;28026;48.562;14.440;2023-04-03T09:01:34;94242.00;;;11.60
41593;BMP180;28026;48.562;14.440;2023-04-03T09:04:14;94243.00;;;11.40
41593;BMP180;28026;48.562;14.440;2023-04-03T09:06:55;94238.00;;;11.20
41593;BMP180;28026;48.562;14.440;2023-04-03T09:09:38;94250.00;;;11.10
41593;BMP180;28026;48.562;14.440;2023-04-03T09:12:24;94257.00;;;10.90
41593;BMP180;28026;48.562;14.440;2023-04-03T09:15:25;94241.00;;;10.90
41593;BMP180;28026;48.562;14.440;2023-04-03T09:18:23;94253.00;;;10.90
41593;BMP180;28026;48.562;14.440;2023-04-03T09:21:37;94256.00;;;11.10
41593;BMP180;28026;48.562;14.440;2023-04-03T09:24:15;94257.00;;;11.20
41593;BMP180;28026;48.562;14.440;2023-04-03T09:27:04;94257.00;;;11.20
41593;BMP180;28026;48.562;14.440;2023-04-03T09:29:43;94258.00;;;11.00
41593;BMP180;28026;48.562;14.440;2023-04-03T09:32:34;94261.00;;;10.90
41593;BMP180;28026;48.562;14.440;2023-04-03T09:40:47;94251.00;;;10.60
41593;BMP180;28026;48.562;14.440;2023-04-03T09:43:37;94271.00;;;10.40
41593;BMP180;28026;48.562;14.440;2023-04-03T09:46:32;94270.00;;;10.30
41593;BMP180;28026;48.562;14.440;2023-04-03T09:49:05;94269.00;;;10.20
41593;BMP180;28026;48.562;14.440;2023-04-03T09:51:42;94263.00;;;10.10
41593;BMP180;28026;48.562;14.440;2023-04-03T09:54:36;94282.00;;;9.90
41593;BMP180;28026;48.562;14.440;2023-04-03T09:57:13;94282.00;;;9.80
41593;BMP180;28026;48.562;14.440;2023-04-03T10:00:00;94275.00;;;9.80
41593;BMP180;28026;48.562;14.440;2023-04-03T10:02:39;94277.00;;;9.80
41593;BMP180;28026;48.562;14.440;2023-04-03T10:05:34;94272.00;;;9.80
41593;BMP180;28026;48.562;14.440;2023-04-03T10:10:48;94280.00;;;9.80
41593;BMP180;28026;48.562;14.440;2023-04-03T10:13:55;94283.00;;;9.70
41593;BMP180;28026;48.562;14.440;2023-04-03T10:16:39;94283.00;;;9.70
41593;BMP180;28026;48.562;14.440;2023-04-03T10:19:39;94277.00;;;9.60
41593;BMP180;28026;48.562;14.440;2023-04-03T10:29:10;94294.00;;;9.70
41593;BMP180;28026;48.562;14.440;2023-04-03T10:32:58;94290.00;;;9.70
41593;BMP180;28026;48.562;14.440;2023-04-03T10:35:42;94294.00;;;9.80
41593;BMP180;28026;48.562;14.440;2023-04-03T10:38:51;94293.00;;;9.90
41593;BMP180;28026;48.562;14.440;2023-04-03T10:42:12;94293.00;;;10.00
41593;BMP180;28026;48.562;14.440;2023-04-03T10:45:34;94287.00;;;10.10
41593;BMP180;28026;48.562;14.440;2023-04-03T10:54:25;94282.00;;;11.00
41593;BMP180;28026;48.562;14.440;2023-04-03T10:57:09;94291.00;;;11.10
41593;BMP180;28026;48.562;14.440;2023-04-03T11:02:37;94290.00;;;11.00
41593;BMP180;28026;48.562;14.440;2023-04-03T11:05:30;94287.00;;;10.80
41593;BMP180;28026;48.562;14.440;2023-04-03T11:08:40;94283.00;;;10.80
41593;BMP180;28026;48.562;14.440;2023-04-03T11:11:21;94282.00;;;10.80
41593;BMP180;28026;48.562;14.440;2023-04-03T11:14:11;94282.00;;;10.70
41593;BMP180;28026;48.562;14.440;2023-04-03T11:25:42;94279.00;;;12.00
41593;BMP180;28026;48.562;14.440;2023-04-03T11:28:15;94268.00;;;12.10
41593;BMP180;28026;48.562;14.440;2023-04-03T11:34:13;94271.00;;;12.40
41593;BMP180;28026;48.562;14.440;2023-04-03T11:36:58;94269.00;;;12.70
41593;BMP180;28026;48.562;14.440;2023-04-03T11:39:38;94258.00;;;13.10
41593;BMP180;28026;48.562;14.440;2023-04-03T11:42:33;94254.00;;;13.60
41593;BMP180;28026;48.562;14.440;2023-04-03T11:50:48;94247.00;;;14.00
41593;BMP180;28026;48.562;14.440;2023-04-03T11:53:36;94256.00;;;13.90
41593;BMP180;28026;48.562;14.440;2023-04-03T12:01:56;94269.00;;;13.40
41593;BMP180;28026;48.562;14.440;2023-04-03T12:04:30;94256.00;;;13.30
41593;BMP180;28026;48.562;14.440;2023-04-03T12:07:18;94249.00;;;13.20
41593;BMP180;28026;48.562;14.440;2023-04-03T12:12:38;94256.00;;;13.50
41593;BMP180;28026;48.562;14.440;2023-04-03T12:15:52;94248.00;;;14.00
41593;BMP180;28026;48.562;14.440;2023-04-03T12:24:34;94244.00;;;13.70
41593;BMP180;28026;48.562;14.440;2023-04-03T12:27:29;94234.00;;;13.40
41593;BMP180;28026;48.562;14.440;2023-04-03T12:30:07;94231.00;;;13.40
41593;BMP180;28026;48.562;14.440;2023-04-03T12:32:48;94240.00;;;13.70
41593;BMP180;28026;48.562;14.440;2023-04-03T12:35:37;94241.00;;;13.90
41593;BMP180;28026;48.562;14.440;2023-04-03T12:45:00;94248.00;;;13.20
41593;BMP180;28026;48.562;14.440;2023-04-03T12:47:36;94246.00;;;12.90
41593;BMP180;28026;48.562;14.440;2023-04-03T12:50:29;94253.00;;;12.60
41593;BMP180;28026;48.562;14.440;2023-04-03T12:53:13;94241.00;;;12.50
41593;BMP180;28026;48.562;14.440;2023-04-03T12:55:58;94236.00;;;12.70
41593;BMP180;28026;48.562;14.440;2023-04-03T12:58:52;94232.00;;;13.00
41593;BMP180;28026;48.562;14.440;2023-04-03T13:01:26;94233.00;;;13.20
41593;BMP180;28026;48.562;14.440;2023-04-03T13:03:58;94230.00;;;13.50
41593;BMP180;28026;48.562;14.440;2023-04-03T13:06:39;94231.00;;;13.60
41593;BMP180;28026;48.562;14.440;2023-04-03T13:09:26;94226.00;;;13.20
41593;BMP180;28026;48.562;14.440;2023-04-03T13:18:00;94219.00;;;12.50
41593;BMP180;28026;48.562;14.440;2023-04-03T13:20:35;94215.00;;;12.70
41593;BMP180;28026;48.562;14.440;2023-04-03T13:23:11;94222.00;;;13.00
41593;BMP180;28026;48.562;14.440;2023-04-03T13:25:49;94224.00;;;13.30
41593;BMP180;28026;48.562;14.440;2023-04-03T13:28:24;94227.00;;;13.40
41593;BMP180;28026;48.562;14.440;2023-04-03T13:31:03;94230.00;;;13.20
41593;BMP180;28026;48.562;14.440;2023-04-03T13:33:36;94224.00;;;12.90
41593;BMP180;28026;48.562;14.440;2023-04-03T13:36:20;94227.00;;;12.80
41593;BMP180;28026;48.562;14.440;2023-04-03T13:39:04;94228.00;;;12.60
41593;BMP180;28026;48.562;14.440;2023-04-03T13:41:45;94225.00;;;12.60
41593;BMP180;28026;48.562;14.440;2023-04-03T13:47:22;94214.00;;;13.20
41593;BMP180;28026;48.562;14.440;2023-04-03T13:50:11;94212.00;;;13.40
41593;BMP180;28026;48.562;14.440;2023-04-03T13:53:12;94199.00;;;13.40
41593;BMP180;28026;48.562;14.440;2023-04-03T13:56:09;94213.00;;;13.40
41593;BMP180;28026;48.562;14.440;2023-04-03T14:07:16;94207.00;;;13.60
41593;BMP180;28026;48.562;14.440;2023-04-03T14:09:49;94209.00;;;13.40
41593;BMP180;28026;48.562;14.440;2023-04-03T14:12:33;94209.00;;;13.30
41593;BMP180;28026;48.562;14.440;2023-04-03T14:15:20;94210.00;;;13.20
41593;BMP180;28026;48.562;14.440;2023-04-03T14:17:55;94192.00;;;13.20
41593;BMP180;28026;48.562;14.440;2023-04-03T14:20:27;94199.00;;;13.50
41593;BMP180;28026;48.562;14.440;2023-04-03T14:22:58;94199.00;;;13.60
41593;BMP180;28026;48.562;14.440;2023-04-03T14:25:29;94203.00;;;13.30
41593;BMP180;28026;48.562;14.440;2023-04-03T14:28:01;94212.00;;;12.90
41593;BMP180;28026;48.562;14.440;2023-04-03T14:30:43;94208.00;;;12.60
41593;BMP180;28026;48.562;14.440;2023-04-03T14:33:19;94204.00;;;12.30
41593;BMP180;28026;48.562;14.440;2023-04-03T14:35:52;94195.00;;;12.10
41593;BMP180;28026;48.562;14.440;2023-04-03T14:38:25;94207.00;;;12.00
41593;BMP180;28026;48.562;14.440;2023-04-03T14:40:59;94206.00;;;11.90
41593;BMP180;28026;48.562;14.440;2023-04-03T14:43:30;94204.00;;;11.80
41593;BMP180;28026;48.562;14.440;2023-04-03T14:46:01;94200.00;;;11.80
41593;BMP180;28026;48.562;14.440;2023-04-03T14:48:32;94207.00;;;11.90
41593;BMP180;28026;48.562;14.440;2023-04-03T14:51:02;94206.00;;;12.20
41593;BMP180;28026;48.562;14.440;2023-04-03T14:53:34;94203.00;;;12.20
41593;BMP180;28026;48.562;14.440;2023-04-03T14:56:21;94216.00;;;12.10
41593;BMP180;28026;48.562;14.440;2023-04-03T14:59:01;94216.00;;;11.80
41593;BMP180;28026;48.562;14.440;2023-04-03T15:01:32;94215.00;;;11.60
41593;BMP180;28026;48.562;14.440;2023-04-03T15:04:15;94220.00;;;11.30
41593;BMP180;28026;48.562;14.440;2023-04-03T15:06:49;94231.00;;;11.10
41593;BMP180;28026;48.562;14.440;2023-04-03T15:09:26;94232.00;;;10.90
41593;BMP180;28026;48.562;14.440;2023-04-03T15:11:58;94230.00;;;10.80
41593;BMP180;28026;48.562;14.440;2023-04-03T15:14:29;94229.00;;;10.80
41593;BMP180;28026;48.562;14.440;2023-04-03T15:17:00;94225.00;;;10.80
41593;BMP180;28026;48.562;14.440;2023-04-03T15:19:37;94224.00;;;10.90
41593;BMP180;28026;48.562;14.440;2023-04-03T15:22:16;94219.00;;;10.90
41593;BMP180;28026;48.562;14.440;2023-04-03T15:24:48;94215.00;;;10.90
41593;BMP180;28026;48.562;14.440;2023-04-03T15:27:19;94220.00;;;10.80
41593;BMP180;28026;48.562;14.440;2023-04-03T15:29:50;94219.00;;;10.80
41593;BMP180;28026;48.562;14.440;2023-04-03T15:32:21;94231.00;;;10.90
41593;BMP180;28026;48.562;14.440;2023-04-03T15:34:54;94219.00;;;10.90
41593;BMP180;28026;48.562;14.440;2023-04-03T15:37:25;94230.00;;;11.00
41593;BMP180;28026;48.562;14.440;2023-04-03T15:39:56;94232.00;;;10.80
41593;BMP180;28026;48.562;14.440;2023-04-03T15:42:27;94218.00;;;10.60
41593;BMP180;28026;48.562;14.440;2023-04-03T15:44:58;94224.00;;;10.40
41593;BMP180;28026;48.562;14.440;2023-04-03T15:47:29;94236.00;;;10.30
41593;BMP180;28026;48.562;14.440;2023-04-03T15:50:00;94230.00;;;10.30
41593;BMP180;28026;48.562;14.440;2023-04-03T15:52:31;94218.00;;;10.20
41593;BMP180;28026;48.562;14.440;2023-04-03T15:55:03;94221.00;;;10.20
41593;BMP180;28026;48.562;14.440;2023-04-03T15:57:35;94216.00;;;10.30
41593;BMP180;28026;48.562;14.440;2023-04-03T16:00:06;94221.00;;;10.30
41593;BMP180;28026;48.562;14.440;2023-04-03T16:02:38;94219.00;;;10.50
41593;BMP180;28026;48.562;14.440;2023-04-03T16:05:11;94212.00;;;10.60
41593;BMP180;28026;48.562;14.440;2023-04-03T16:07:44;94217.00;;;10.70
41593;BMP180;28026;48.562;14.440;2023-04-03T16:10:18;94218.00;;;10.90
41593;BMP180;28026;48.562;14.440;2023-04-03T16:12:49;94219.00;;;11.00
41593;BMP180;28026;48.562;14.440;2023-04-03T16:15:20;94215.00;;;11.00
41593;BMP180;28026;48.562;14.440;2023-04-03T16:17:52;94215.00;;;10.90
41593;BMP180;28026;48.562;14.440;2023-04-03T16:20:25;94216.00;;;10.80
41593;BMP180;28026;48.562;14.440;2023-04-03T16:22:59;94203.00;;;10.60
41593;BMP180;28026;48.562;14.440;2023-04-03T16:25:31;94212.00;;;10.40